Arroyo Grande, California
Current Conditions -  °F | °C
As of 12:56 PM on Friday 19 Dec 2014 (Local Time) from KSBP Reporting Station
Broken Clouds Broken Clouds  
Wind Chill: 61°   Ceiling: 2600
Heat Index: 61°   Visibility: 10mi
Dew Point: 50°   Wind: 8mph
Humidity: 67%   Direction: 130°SE
Pressure: 30.18"   Gusts: NA
Location:  35.12°N, 120.57°W
Report Text: KSBP 192056Z 13007KT 10SM BKN026 BKN037 16/10 A3018 RMK AO2 SLP219 T01610100 58024
Loading
Personal Weather Stations






























Interactive Weather Map New forecast layout! Learn more

10-Day Weather Forecast

Advertisements
Track Severe Weather on mobile